Buffalo, MN

6:10 PM CST on February 07, 2016 (GMT -0600)
Buffalo | | Change Station
CLOSE
Current Station
Airport
Location: Buffalo,
Elevation: 968 ft
Nearby Weather Stations
Active Advisory: Winter Weather Advisory Active Notice: Public Information Statement

Elev 968 ft 45.16 °N, 93.85 °W | Updated 16 minutes ago

Light Snow
Light Snow
28 °F
Feels Like 14 °F
N
25
Wind Variable Wind from WNW
Gusts 34 mph

Today
High -- | Low -- °F
--% Chance of Precip.
Yesterday
High -- | Low -- °F
Precip. -- in
Pressure 29.73 in
Visibility 7.0 miles
Clouds Scattered Clouds 1400 ft
Mostly Cloudy 3300 ft
Overcast 4900 ft
Windchill 14 °F
Dew Point 19 °F
Humidity 69%
Rainfall 0.00 in
Snow Depth Not available.
7:28 AM 5:30 PM
Waning Crescent, 1% visible
METAR KCFE 072354Z AUTO 29022G30KT 7SM -SN SCT014 BKN033 OVC049 M02/M07 A2973 RMK AO2 T10201071
Pressure 29.73 in
Visibility 7.0 miles
Clouds Scattered Clouds 1400 ft
Mostly Cloudy 3300 ft
Overcast 4900 ft
Windchill 14 °F
Dew Point 19 °F
Humidity 69%
Rainfall 0.00 in
Snow Depth Not available.
7:28 AM 5:30 PM
Waning Crescent, 1% visible
METAR KCFE 072354Z AUTO 29022G30KT 7SM -SN SCT014 BKN033 OVC049 M02/M07 A2973 RMK AO2 T10201071

10-Day Weather Forecast

Almanac

Astronomy

Feb. 07, 2016 Rise Set
Actual Time
Civil Twilight
Nautical Twilight
Astronomical Twilight
Moon
Length of Visible Light
Length of Day
Tomorrow will be .
, % of the Moon is Illuminated

Today's Extremes

State Highs State Lows

Community

WunderPhotos

Upload Photos

1,891,334 photos uploaded!

WunderBlog® & News

Nearby

Air Quality

  Air Quality AQ Index Pollutant
Not available.

Snow Depth

Station Depth Elevation

Earthquake Activity

City Distance Mag. Time & Date
Minimum magnitude displayed is 2.5.

Coastal Water Temperatures

Place Temperature

Stations

Nearby Weather Stations

Station Location Temp. Windchill Dew Point Humidity Wind Precip. Elev Updated Type
                   

Watches & Warnings

Winter Weather Advisory
Issued: 12:59 PM CST Feb. 7, 2016 – National Weather Service

... Winter Weather Advisory remains in effect from 7 PM this
evening to noon CST Monday...

A Winter Weather Advisory remains in effect from 7 PM this
evening to noon CST Monday.

* Expect snow to develop around 7 PM and then diminish around
noon Monday.

* Total snow accumulations of up to 1 inch are expected.

* Winds gusting as high as 40 mph will cause widespread blowing
and drifting snow.

* Plan on slippery Road conditions.

Precautionary/preparedness actions...

A Winter Weather Advisory for snow means periods of snow will
cause primarily travel difficulties. Be prepared for snow covered
roads and limited visibilities... and use caution while driving.
The latest Road conditions for the state you are calling from can
be obtained by calling 5 1 1.


Jlt